sensor_id;sensor_type;location;lat;lon;timestamp;P1;durP1;ratioP1;P2;durP2;ratioP2
18100;SDS011;9177;49.156;8.142;2023-04-03T00:02:04;2.10;;;1.27;;
18100;SDS011;9177;49.156;8.142;2023-04-03T00:04:31;3.23;;;1.23;;
18100;SDS011;9177;49.156;8.142;2023-04-03T00:06:58;2.07;;;1.20;;
18100;SDS011;9177;49.156;8.142;2023-04-03T00:09:26;2.37;;;1.20;;
18100;SDS011;9177;49.156;8.142;2023-04-03T00:11:53;2.70;;;1.30;;
18100;SDS011;9177;49.156;8.142;2023-04-03T00:14:20;2.90;;;1.10;;
18100;SDS011;9177;49.156;8.142;2023-04-03T00:16:47;3.30;;;1.20;;
18100;SDS011;9177;49.156;8.142;2023-04-03T00:19:14;0.97;;;0.90;;
18100;SDS011;9177;49.156;8.142;2023-04-03T00:21:40;1.33;;;1.00;;
18100;SDS011;9177;49.156;8.142;2023-04-03T00:24:07;1.80;;;1.00;;
18100;SDS011;9177;49.156;8.142;2023-04-03T00:26:36;3.43;;;0.93;;
18100;SDS011;9177;49.156;8.142;2023-04-03T00:29:02;1.40;;;0.90;;
18100;SDS011;9177;49.156;8.142;2023-04-03T00:31:29;1.77;;;1.00;;
18100;SDS011;9177;49.156;8.142;2023-04-03T00:33:56;0.93;;;0.90;;
18100;SDS011;9177;49.156;8.142;2023-04-03T00:36:24;0.93;;;0.80;;
18100;SDS011;9177;49.156;8.142;2023-04-03T00:38:51;2.60;;;1.30;;
18100;SDS011;9177;49.156;8.142;2023-04-03T00:41:18;2.30;;;0.80;;
18100;SDS011;9177;49.156;8.142;2023-04-03T00:43:46;1.10;;;0.80;;
18100;SDS011;9177;49.156;8.142;2023-04-03T00:46:13;2.40;;;1.20;;
18100;SDS011;9177;49.156;8.142;2023-04-03T00:48:40;1.20;;;0.90;;
18100;SDS011;9177;49.156;8.142;2023-04-03T00:51:09;1.30;;;1.07;;
18100;SDS011;9177;49.156;8.142;2023-04-03T00:53:40;1.00;;;0.90;;
18100;SDS011;9177;49.156;8.142;2023-04-03T00:56:11;0.90;;;0.90;;
18100;SDS011;9177;49.156;8.142;2023-04-03T00:58:42;3.53;;;1.20;;
18100;SDS011;9177;49.156;8.142;2023-04-03T01:01:17;1.00;;;0.90;;
18100;SDS011;9177;49.156;8.142;2023-04-03T01:03:48;1.07;;;0.90;;
18100;SDS011;9177;49.156;8.142;2023-04-03T01:06:15;1.57;;;0.90;;
18100;SDS011;9177;49.156;8.142;2023-04-03T01:08:43;1.40;;;1.03;;
18100;SDS011;9177;49.156;8.142;2023-04-03T01:11:11;0.77;;;0.73;;
18100;SDS011;9177;49.156;8.142;2023-04-03T01:13:38;1.33;;;0.80;;
18100;SDS011;9177;49.156;8.142;2023-04-03T01:16:06;1.03;;;0.93;;
18100;SDS011;9177;49.156;8.142;2023-04-03T01:18:35;1.23;;;1.00;;
18100;SDS011;9177;49.156;8.142;2023-04-03T01:21:14;1.50;;;0.90;;
18100;SDS011;9177;49.156;8.142;2023-04-03T01:24:11;1.10;;;1.00;;
18100;SDS011;9177;49.156;8.142;2023-04-03T01:26:47;0.63;;;0.63;;
18100;SDS011;9177;49.156;8.142;2023-04-03T01:29:15;2.17;;;1.07;;
18100;SDS011;9177;49.156;8.142;2023-04-03T01:31:48;1.37;;;0.90;;
18100;SDS011;9177;49.156;8.142;2023-04-03T01:34:19;1.83;;;0.97;;
18100;SDS011;9177;49.156;8.142;2023-04-03T01:36:46;1.77;;;0.90;;
18100;SDS011;9177;49.156;8.142;2023-04-03T01:39:13;1.00;;;0.90;;
18100;SDS011;9177;49.156;8.142;2023-04-03T01:41:42;1.23;;;1.00;;
18100;SDS011;9177;49.156;8.142;2023-04-03T01:44:09;0.87;;;0.87;;
18100;SDS011;9177;49.156;8.142;2023-04-03T01:46:36;1.10;;;0.70;;
18100;SDS011;9177;49.156;8.142;2023-04-03T01:49:05;0.80;;;0.80;;
18100;SDS011;9177;49.156;8.142;2023-04-03T01:51:31;0.83;;;0.70;;
18100;SDS011;9177;49.156;8.142;2023-04-03T01:53:59;1.13;;;0.80;;
18100;SDS011;9177;49.156;8.142;2023-04-03T01:56:26;0.80;;;0.80;;
18100;SDS011;9177;49.156;8.142;2023-04-03T01:58:52;1.70;;;0.87;;
18100;SDS011;9177;49.156;8.142;2023-04-03T02:01:19;0.97;;;0.90;;
18100;SDS011;9177;49.156;8.142;2023-04-03T02:03:46;1.87;;;1.03;;
18100;SDS011;9177;49.156;8.142;2023-04-03T02:06:15;0.97;;;0.87;;
18100;SDS011;9177;49.156;8.142;2023-04-03T02:08:41;1.03;;;0.80;;
18100;SDS011;9177;49.156;8.142;2023-04-03T02:11:08;0.80;;;0.70;;
18100;SDS011;9177;49.156;8.142;2023-04-03T02:13:35;1.37;;;0.80;;
18100;SDS011;9177;49.156;8.142;2023-04-03T02:16:05;0.80;;;0.70;;
18100;SDS011;9177;49.156;8.142;2023-04-03T02:18:33;0.70;;;0.70;;
18100;SDS011;9177;49.156;8.142;2023-04-03T02:21:00;1.30;;;0.80;;
18100;SDS011;9177;49.156;8.142;2023-04-03T02:23:28;1.10;;;0.77;;
18100;SDS011;9177;49.156;8.142;2023-04-03T02:26:02;1.00;;;0.80;;
18100;SDS011;9177;49.156;8.142;2023-04-03T02:28:31;1.43;;;0.93;;
18100;SDS011;9177;49.156;8.142;2023-04-03T02:30:57;0.77;;;0.70;;
18100;SDS011;9177;49.156;8.142;2023-04-03T02:33:24;1.00;;;0.60;;
18100;SDS011;9177;49.156;8.142;2023-04-03T02:35:52;1.00;;;0.80;;
18100;SDS011;9177;49.156;8.142;2023-04-03T02:38:19;1.30;;;0.80;;
18100;SDS011;9177;49.156;8.142;2023-04-03T02:40:48;0.97;;;0.70;;
18100;SDS011;9177;49.156;8.142;2023-04-03T02:43:16;0.77;;;0.77;;
18100;SDS011;9177;49.156;8.142;2023-04-03T02:45:43;0.70;;;0.70;;
18100;SDS011;9177;49.156;8.142;2023-04-03T02:48:10;1.20;;;0.90;;
18100;SDS011;9177;49.156;8.142;2023-04-03T02:50:37;0.90;;;0.73;;
18100;SDS011;9177;49.156;8.142;2023-04-03T02:53:03;1.03;;;0.70;;
18100;SDS011;9177;49.156;8.142;2023-04-03T02:55:30;0.77;;;0.77;;
18100;SDS011;9177;49.156;8.142;2023-04-03T02:57:59;1.00;;;0.80;;
18100;SDS011;9177;49.156;8.142;2023-04-03T03:00:25;0.90;;;0.70;;
18100;SDS011;9177;49.156;8.142;2023-04-03T03:02:52;2.10;;;0.90;;
18100;SDS011;9177;49.156;8.142;2023-04-03T03:05:19;1.03;;;0.77;;
18100;SDS011;9177;49.156;8.142;2023-04-03T03:07:46;0.70;;;0.60;;
18100;SDS011;9177;49.156;8.142;2023-04-03T03:10:13;1.40;;;1.00;;
18100;SDS011;9177;49.156;8.142;2023-04-03T03:12:43;0.83;;;0.70;;
18100;SDS011;9177;49.156;8.142;2023-04-03T03:15:12;1.13;;;0.70;;
18100;SDS011;9177;49.156;8.142;2023-04-03T03:17:40;0.80;;;0.70;;
18100;SDS011;9177;49.156;8.142;2023-04-03T03:20:07;0.57;;;0.57;;
18100;SDS011;9177;49.156;8.142;2023-04-03T03:22:34;0.70;;;0.60;;
18100;SDS011;9177;49.156;8.142;2023-04-03T03:25:03;1.17;;;0.57;;
18100;SDS011;9177;49.156;8.142;2023-04-03T03:27:31;1.40;;;0.90;;
18100;SDS011;9177;49.156;8.142;2023-04-03T03:29:57;1.03;;;0.93;;
18100;SDS011;9177;49.156;8.142;2023-04-03T03:32:26;1.27;;;0.87;;
18100;SDS011;9177;49.156;8.142;2023-04-03T03:34:53;1.17;;;0.70;;
18100;SDS011;9177;49.156;8.142;2023-04-03T03:37:19;4.17;;;0.73;;
18100;SDS011;9177;49.156;8.142;2023-04-03T03:39:46;1.30;;;0.70;;
18100;SDS011;9177;49.156;8.142;2023-04-03T03:42:13;0.80;;;0.77;;
18100;SDS011;9177;49.156;8.142;2023-04-03T03:44:40;1.00;;;0.77;;
18100;SDS011;9177;49.156;8.142;2023-04-03T03:47:07;1.07;;;0.80;;
18100;SDS011;9177;49.156;8.142;2023-04-03T03:49:37;0.70;;;0.70;;
18100;SDS011;9177;49.156;8.142;2023-04-03T03:52:03;1.10;;;0.80;;
18100;SDS011;9177;49.156;8.142;2023-04-03T03:54:30;0.63;;;0.63;;
18100;SDS011;9177;49.156;8.142;2023-04-03T03:56:57;1.07;;;0.80;;
18100;SDS011;9177;49.156;8.142;2023-04-03T03:59:24;1.73;;;0.80;;
18100;SDS011;9177;49.156;8.142;2023-04-03T04:01:51;1.00;;;0.90;;
18100;SDS011;9177;49.156;8.142;2023-04-03T04:04:18;1.37;;;0.80;;
18100;SDS011;9177;49.156;8.142;2023-04-03T04:06:46;0.90;;;0.70;;
18100;SDS011;9177;49.156;8.142;2023-04-03T04:09:13;0.80;;;0.70;;
18100;SDS011;9177;49.156;8.142;2023-04-03T04:11:40;2.00;;;0.80;;
18100;SDS011;9177;49.156;8.142;2023-04-03T04:14:07;1.10;;;1.00;;
18100;SDS011;9177;49.156;8.142;2023-04-03T04:16:35;1.10;;;0.83;;
18100;SDS011;9177;49.156;8.142;2023-04-03T04:19:02;1.10;;;0.67;;
18100;SDS011;9177;49.156;8.142;2023-04-03T04:21:29;0.67;;;0.67;;
18100;SDS011;9177;49.156;8.142;2023-04-03T04:23:57;0.67;;;0.67;;
18100;SDS011;9177;49.156;8.142;2023-04-03T04:26:24;0.93;;;0.67;;
18100;SDS011;9177;49.156;8.142;2023-04-03T04:28:51;0.67;;;0.60;;
18100;SDS011;9177;49.156;8.142;2023-04-03T04:31:17;1.00;;;0.80;;
18100;SDS011;9177;49.156;8.142;2023-04-03T04:33:44;1.00;;;0.63;;
18100;SDS011;9177;49.156;8.142;2023-04-03T04:36:11;0.60;;;0.50;;
18100;SDS011;9177;49.156;8.142;2023-04-03T04:38:39;0.87;;;0.80;;
18100;SDS011;9177;49.156;8.142;2023-04-03T04:41:07;0.70;;;0.70;;
18100;SDS011;9177;49.156;8.142;2023-04-03T04:43:34;1.00;;;0.77;;
18100;SDS011;9177;49.156;8.142;2023-04-03T04:46:02;0.90;;;0.70;;
18100;SDS011;9177;49.156;8.142;2023-04-03T04:48:30;0.60;;;0.60;;
18100;SDS011;9177;49.156;8.142;2023-04-03T04:50:57;0.70;;;0.70;;
18100;SDS011;9177;49.156;8.142;2023-04-03T04:53:24;1.13;;;1.00;;
18100;SDS011;9177;49.156;8.142;2023-04-03T04:55:51;1.30;;;0.90;;
18100;SDS011;9177;49.156;8.142;2023-04-03T04:58:19;1.17;;;0.80;;
18100;SDS011;9177;49.156;8.142;2023-04-03T05:00:46;1.00;;;0.80;;
18100;SDS011;9177;49.156;8.142;2023-04-03T05:03:13;1.20;;;0.83;;
18100;SDS011;9177;49.156;8.142;2023-04-03T05:05:40;1.27;;;0.90;;
18100;SDS011;9177;49.156;8.142;2023-04-03T05:08:07;1.20;;;1.00;;
18100;SDS011;9177;49.156;8.142;2023-04-03T05:10:34;1.00;;;0.80;;
18100;SDS011;9177;49.156;8.142;2023-04-03T05:13:01;1.00;;;0.90;;
18100;SDS011;9177;49.156;8.142;2023-04-03T05:15:29;0.70;;;0.60;;
18100;SDS011;9177;49.156;8.142;2023-04-03T05:17:56;0.60;;;0.60;;
18100;SDS011;9177;49.156;8.142;2023-04-03T05:20:23;1.00;;;0.90;;
18100;SDS011;9177;49.156;8.142;2023-04-03T05:22:50;2.30;;;0.90;;
18100;SDS011;9177;49.156;8.142;2023-04-03T05:25:16;0.93;;;0.83;;
18100;SDS011;9177;49.156;8.142;2023-04-03T05:27:44;0.80;;;0.80;;
18100;SDS011;9177;49.156;8.142;2023-04-03T05:30:11;1.20;;;0.80;;
18100;SDS011;9177;49.156;8.142;2023-04-03T05:32:40;1.03;;;0.67;;
18100;SDS011;9177;49.156;8.142;2023-04-03T05:35:07;1.13;;;1.03;;
18100;SDS011;9177;49.156;8.142;2023-04-03T05:37:34;0.90;;;0.80;;
18100;SDS011;9177;49.156;8.142;2023-04-03T05:40:01;0.73;;;0.73;;
18100;SDS011;9177;49.156;8.142;2023-04-03T05:42:29;1.13;;;1.00;;
18100;SDS011;9177;49.156;8.142;2023-04-03T05:44:56;1.33;;;0.90;;
18100;SDS011;9177;49.156;8.142;2023-04-03T05:47:23;1.00;;;0.80;;
18100;SDS011;9177;49.156;8.142;2023-04-03T05:49:51;1.27;;;0.90;;
18100;SDS011;9177;49.156;8.142;2023-04-03T05:52:20;1.87;;;1.10;;
18100;SDS011;9177;49.156;8.142;2023-04-03T05:54:49;0.70;;;0.70;;
18100;SDS011;9177;49.156;8.142;2023-04-03T05:57:16;1.30;;;1.13;;
18100;SDS011;9177;49.156;8.142;2023-04-03T05:59:44;1.07;;;0.97;;
18100;SDS011;9177;49.156;8.142;2023-04-03T06:02:12;1.20;;;0.83;;
18100;SDS011;9177;49.156;8.142;2023-04-03T06:04:40;1.40;;;0.90;;
18100;SDS011;9177;49.156;8.142;2023-04-03T06:07:09;1.50;;;0.70;;
18100;SDS011;9177;49.156;8.142;2023-04-03T06:09:38;1.10;;;0.90;;
18100;SDS011;9177;49.156;8.142;2023-04-03T06:12:05;1.20;;;1.10;;
18100;SDS011;9177;49.156;8.142;2023-04-03T06:14:32;1.33;;;0.87;;
18100;SDS011;9177;49.156;8.142;2023-04-03T06:17:00;1.47;;;1.00;;
18100;SDS011;9177;49.156;8.142;2023-04-03T06:19:27;0.83;;;0.80;;
18100;SDS011;9177;49.156;8.142;2023-04-03T06:21:54;1.00;;;0.90;;
18100;SDS011;9177;49.156;8.142;2023-04-03T06:24:22;1.10;;;1.00;;
18100;SDS011;9177;49.156;8.142;2023-04-03T06:26:50;0.73;;;0.73;;
18100;SDS011;9177;49.156;8.142;2023-04-03T06:29:17;1.23;;;1.13;;
18100;SDS011;9177;49.156;8.142;2023-04-03T06:31:44;1.87;;;0.97;;
18100;SDS011;9177;49.156;8.142;2023-04-03T06:34:11;1.00;;;0.70;;
18100;SDS011;9177;49.156;8.142;2023-04-03T06:36:40;1.07;;;0.93;;
18100;SDS011;9177;49.156;8.142;2023-04-03T06:39:08;1.30;;;0.97;;
18100;SDS011;9177;49.156;8.142;2023-04-03T06:41:40;1.10;;;0.90;;
18100;SDS011;9177;49.156;8.142;2023-04-03T06:44:09;1.77;;;1.00;;
18100;SDS011;9177;49.156;8.142;2023-04-03T06:46:38;1.07;;;0.83;;
18100;SDS011;9177;49.156;8.142;2023-04-03T06:49:05;1.27;;;0.90;;
18100;SDS011;9177;49.156;8.142;2023-04-03T06:51:33;0.90;;;0.80;;
18100;SDS011;9177;49.156;8.142;2023-04-03T06:54:03;1.00;;;0.90;;
18100;SDS011;9177;49.156;8.142;2023-04-03T06:56:31;1.30;;;1.07;;
18100;SDS011;9177;49.156;8.142;2023-04-03T06:59:00;1.37;;;1.10;;
18100;SDS011;9177;49.156;8.142;2023-04-03T07:01:28;3.77;;;1.10;;
18100;SDS011;9177;49.156;8.142;2023-04-03T07:03:55;3.43;;;1.10;;
18100;SDS011;9177;49.156;8.142;2023-04-03T07:06:22;3.23;;;1.20;;
18100;SDS011;9177;49.156;8.142;2023-04-03T07:08:52;4.30;;;1.10;;
18100;SDS011;9177;49.156;8.142;2023-04-03T07:11:18;3.20;;;1.20;;
18100;SDS011;9177;49.156;8.142;2023-04-03T07:13:45;3.17;;;1.00;;
18100;SDS011;9177;49.156;8.142;2023-04-03T07:16:14;3.37;;;1.10;;
18100;SDS011;9177;49.156;8.142;2023-04-03T07:18:41;2.93;;;1.10;;
18100;SDS011;9177;49.156;8.142;2023-04-03T07:21:08;2.33;;;1.10;;
18100;SDS011;9177;49.156;8.142;2023-04-03T07:23:35;2.43;;;1.00;;
18100;SDS011;9177;49.156;8.142;2023-04-03T07:26:02;3.30;;;1.30;;
18100;SDS011;9177;49.156;8.142;2023-04-03T07:28:29;3.50;;;1.40;;
18100;SDS011;9177;49.156;8.142;2023-04-03T07:30:59;2.30;;;1.30;;
18100;SDS011;9177;49.156;8.142;2023-04-03T07:33:29;2.33;;;0.80;;
18100;SDS011;9177;49.156;8.142;2023-04-03T07:35:57;6.80;;;1.47;;
18100;SDS011;9177;49.156;8.142;2023-04-03T07:38:25;2.00;;;1.30;;
18100;SDS011;9177;49.156;8.142;2023-04-03T07:40:52;4.17;;;1.40;;
18100;SDS011;9177;49.156;8.142;2023-04-03T07:43:20;1.83;;;1.10;;
18100;SDS011;9177;49.156;8.142;2023-04-03T07:45:49;2.50;;;1.00;;
18100;SDS011;9177;49.156;8.142;2023-04-03T07:48:17;1.30;;;0.93;;
18100;SDS011;9177;49.156;8.142;2023-04-03T07:50:47;3.33;;;1.00;;
18100;SDS011;9177;49.156;8.142;2023-04-03T07:53:14;4.27;;;1.20;;
18100;SDS011;9177;49.156;8.142;2023-04-03T07:55:41;3.10;;;1.00;;
18100;SDS011;9177;49.156;8.142;2023-04-03T07:58:09;2.07;;;1.20;;
18100;SDS011;9177;49.156;8.142;2023-04-03T08:00:36;1.90;;;1.13;;
18100;SDS011;9177;49.156;8.142;2023-04-03T08:03:04;4.40;;;1.20;;
18100;SDS011;9177;49.156;8.142;2023-04-03T08:05:48;3.67;;;1.07;;
18100;SDS011;9177;49.156;8.142;2023-04-03T08:08:16;6.57;;;1.50;;
18100;SDS011;9177;49.156;8.142;2023-04-03T08:10:47;3.53;;;1.50;;
18100;SDS011;9177;49.156;8.142;2023-04-03T08:13:16;6.20;;;1.30;;
18100;SDS011;9177;49.156;8.142;2023-04-03T08:15:43;3.37;;;1.53;;
18100;SDS011;9177;49.156;8.142;2023-04-03T08:18:10;6.00;;;1.67;;
18100;SDS011;9177;49.156;8.142;2023-04-03T08:20:38;13.73;;;1.80;;
18100;SDS011;9177;49.156;8.142;2023-04-03T08:23:07;7.03;;;1.70;;
18100;SDS011;9177;49.156;8.142;2023-04-03T08:25:37;6.17;;;1.53;;
18100;SDS011;9177;49.156;8.142;2023-04-03T08:28:04;12.03;;;2.10;;
18100;SDS011;9177;49.156;8.142;2023-04-03T08:30:31;8.37;;;1.50;;
18100;SDS011;9177;49.156;8.142;2023-04-03T08:33:00;8.10;;;1.40;;
18100;SDS011;9177;49.156;8.142;2023-04-03T08:35:27;11.20;;;1.80;;
18100;SDS011;9177;49.156;8.142;2023-04-03T08:37:54;9.17;;;2.13;;
18100;SDS011;9177;49.156;8.142;2023-04-03T08:40:23;10.60;;;1.80;;
18100;SDS011;9177;49.156;8.142;2023-04-03T08:42:59;8.13;;;1.43;;
18100;SDS011;9177;49.156;8.142;2023-04-03T08:45:43;4.20;;;1.50;;
18100;SDS011;9177;49.156;8.142;2023-04-03T08:48:15;5.23;;;1.30;;
18100;SDS011;9177;49.156;8.142;2023-04-03T08:50:47;7.80;;;1.60;;
18100;SDS011;9177;49.156;8.142;2023-04-03T08:53:18;9.87;;;1.70;;
18100;SDS011;9177;49.156;8.142;2023-04-03T08:55:49;7.20;;;1.53;;
18100;SDS011;9177;49.156;8.142;2023-04-03T08:58:18;5.10;;;1.47;;
18100;SDS011;9177;49.156;8.142;2023-04-03T09:00:47;6.27;;;1.43;;
18100;SDS011;9177;49.156;8.142;2023-04-03T09:03:17;4.27;;;1.47;;
18100;SDS011;9177;49.156;8.142;2023-04-03T09:05:47;8.40;;;1.80;;
18100;SDS011;9177;49.156;8.142;2023-04-03T09:08:23;5.57;;;1.60;;
18100;SDS011;9177;49.156;8.142;2023-04-03T09:10:57;8.83;;;1.30;;
18100;SDS011;9177;49.156;8.142;2023-04-03T09:13:30;5.93;;;1.70;;
18100;SDS011;9177;49.156;8.142;2023-04-03T09:16:03;6.23;;;1.83;;
18100;SDS011;9177;49.156;8.142;2023-04-03T09:18:41;10.13;;;1.73;;
18100;SDS011;9177;49.156;8.142;2023-04-03T09:21:13;3.93;;;1.23;;
18100;SDS011;9177;49.156;8.142;2023-04-03T09:23:49;7.23;;;1.30;;
18100;SDS011;9177;49.156;8.142;2023-04-03T09:26:20;3.13;;;1.40;;
18100;SDS011;9177;49.156;8.142;2023-04-03T09:28:51;5.43;;;1.47;;
18100;SDS011;9177;49.156;8.142;2023-04-03T09:31:21;5.03;;;1.27;;
18100;SDS011;9177;49.156;8.142;2023-04-03T09:33:51;1.77;;;1.20;;
18100;SDS011;9177;49.156;8.142;2023-04-03T09:39:11;3.83;;;1.50;;
18100;SDS011;9177;49.156;8.142;2023-04-03T09:41:42;4.17;;;1.40;;
18100;SDS011;9177;49.156;8.142;2023-04-03T09:44:23;4.50;;;1.40;;
18100;SDS011;9177;49.156;8.142;2023-04-03T09:46:51;3.47;;;1.00;;
18100;SDS011;9177;49.156;8.142;2023-04-03T09:49:18;4.27;;;1.20;;
18100;SDS011;9177;49.156;8.142;2023-04-03T09:51:46;9.40;;;1.40;;
18100;SDS011;9177;49.156;8.142;2023-04-03T09:57:10;4.40;;;1.20;;
18100;SDS011;9177;49.156;8.142;2023-04-03T09:59:45;6.40;;;1.60;;
18100;SDS011;9177;49.156;8.142;2023-04-03T10:02:21;3.70;;;1.50;;
18100;SDS011;9177;49.156;8.142;2023-04-03T10:04:56;8.60;;;1.40;;
18100;SDS011;9177;49.156;8.142;2023-04-03T10:07:27;8.47;;;1.67;;
18100;SDS011;9177;49.156;8.142;2023-04-03T10:09:56;6.27;;;1.60;;
18100;SDS011;9177;49.156;8.142;2023-04-03T10:12:26;3.13;;;1.17;;
18100;SDS011;9177;49.156;8.142;2023-04-03T10:14:55;12.40;;;2.00;;
18100;SDS011;9177;49.156;8.142;2023-04-03T10:17:25;4.97;;;1.60;;
18100;SDS011;9177;49.156;8.142;2023-04-03T10:20:04;8.20;;;1.87;;
18100;SDS011;9177;49.156;8.142;2023-04-03T10:22:42;3.10;;;1.70;;
18100;SDS011;9177;49.156;8.142;2023-04-03T10:25:20;7.40;;;1.40;;
18100;SDS011;9177;49.156;8.142;2023-04-03T10:27:57;4.83;;;1.33;;
18100;SDS011;9177;49.156;8.142;2023-04-03T10:30:38;2.40;;;1.30;;
18100;SDS011;9177;49.156;8.142;2023-04-03T10:33:25;4.63;;;1.27;;
18100;SDS011;9177;49.156;8.142;2023-04-03T10:36:00;7.67;;;1.40;;
18100;SDS011;9177;49.156;8.142;2023-04-03T10:38:37;6.30;;;1.43;;
18100;SDS011;9177;49.156;8.142;2023-04-03T10:41:10;6.57;;;2.23;;
18100;SDS011;9177;49.156;8.142;2023-04-03T10:43:44;6.07;;;1.40;;
18100;SDS011;9177;49.156;8.142;2023-04-03T10:46:18;7.00;;;1.60;;
18100;SDS011;9177;49.156;8.142;2023-04-03T10:48:57;4.73;;;1.20;;
18100;SDS011;9177;49.156;8.142;2023-04-03T10:51:34;4.80;;;1.33;;
18100;SDS011;9177;49.156;8.142;2023-04-03T10:54:08;6.47;;;1.47;;
18100;SDS011;9177;49.156;8.142;2023-04-03T10:56:39;4.37;;;1.20;;
18100;SDS011;9177;49.156;8.142;2023-04-03T10:59:15;5.30;;;1.43;;
18100;SDS011;9177;49.156;8.142;2023-04-03T11:01:48;3.23;;;0.93;;
18100;SDS011;9177;49.156;8.142;2023-04-03T11:04:19;2.00;;;1.10;;
18100;SDS011;9177;49.156;8.142;2023-04-03T11:06:48;3.20;;;1.43;;
18100;SDS011;9177;49.156;8.142;2023-04-03T11:09:22;2.13;;;1.13;;
18100;SDS011;9177;49.156;8.142;2023-04-03T11:11:53;3.47;;;1.10;;
18100;SDS011;9177;49.156;8.142;2023-04-03T11:14:26;3.10;;;1.10;;
18100;SDS011;9177;49.156;8.142;2023-04-03T11:17:01;4.77;;;1.20;;
18100;SDS011;9177;49.156;8.142;2023-04-03T11:19:34;4.93;;;1.27;;
18100;SDS011;9177;49.156;8.142;2023-04-03T11:22:08;2.10;;;1.27;;
18100;SDS011;9177;49.156;8.142;2023-04-03T11:24:42;5.03;;;1.30;;
18100;SDS011;9177;49.156;8.142;2023-04-03T11:27:15;5.77;;;1.40;;
18100;SDS011;9177;49.156;8.142;2023-04-03T11:29:49;4.47;;;1.17;;
18100;SDS011;9177;49.156;8.142;2023-04-03T11:32:27;5.77;;;1.20;;
18100;SDS011;9177;49.156;8.142;2023-04-03T11:35:06;3.63;;;1.23;;
18100;SDS011;9177;49.156;8.142;2023-04-03T11:37:35;5.20;;;1.30;;
18100;SDS011;9177;49.156;8.142;2023-04-03T11:40:06;7.47;;;1.23;;
18100;SDS011;9177;49.156;8.142;2023-04-03T11:42:46;3.40;;;0.80;;
18100;SDS011;9177;49.156;8.142;2023-04-03T12:12:43;3.10;;;1.30;;
18100;SDS011;9177;49.156;8.142;2023-04-03T12:21:17;5.97;;;1.30;;
18100;SDS011;9177;49.156;8.142;2023-04-03T12:24:02;5.37;;;1.70;;
18100;SDS011;9177;49.156;8.142;2023-04-03T12:26:32;9.47;;;1.37;;
18100;SDS011;9177;49.156;8.142;2023-04-03T12:29:10;4.23;;;1.00;;
18100;SDS011;9177;49.156;8.142;2023-04-03T12:31:45;5.17;;;1.20;;
18100;SDS011;9177;49.156;8.142;2023-04-03T12:34:30;6.87;;;1.27;;
18100;SDS011;9177;49.156;8.142;2023-04-03T12:37:19;4.67;;;0.93;;
18100;SDS011;9177;49.156;8.142;2023-04-03T12:40:00;3.50;;;1.40;;
18100;SDS011;9177;49.156;8.142;2023-04-03T12:42:51;2.00;;;0.93;;
18100;SDS011;9177;49.156;8.142;2023-04-03T12:45:41;4.23;;;1.00;;
18100;SDS011;9177;49.156;8.142;2023-04-03T12:48:14;3.03;;;1.03;;
18100;SDS011;9177;49.156;8.142;2023-04-03T12:50:44;1.77;;;0.87;;
18100;SDS011;9177;49.156;8.142;2023-04-03T12:53:14;3.20;;;1.30;;
18100;SDS011;9177;49.156;8.142;2023-04-03T12:55:44;3.30;;;1.10;;
18100;SDS011;9177;49.156;8.142;2023-04-03T12:58:14;2.33;;;0.90;;
18100;SDS011;9177;49.156;8.142;2023-04-03T13:00:43;3.80;;;1.00;;
18100;SDS011;9177;49.156;8.142;2023-04-03T13:03:21;4.00;;;0.77;;
18100;SDS011;9177;49.156;8.142;2023-04-03T13:05:53;2.77;;;1.13;;
18100;SDS011;9177;49.156;8.142;2023-04-03T13:08:23;2.97;;;0.83;;
18100;SDS011;9177;49.156;8.142;2023-04-03T13:10:52;4.97;;;1.40;;
18100;SDS011;9177;49.156;8.142;2023-04-03T13:13:22;4.27;;;1.00;;
18100;SDS011;9177;49.156;8.142;2023-04-03T13:15:49;2.43;;;1.13;;
18100;SDS011;9177;49.156;8.142;2023-04-03T13:18:21;5.33;;;1.70;;
18100;SDS011;9177;49.156;8.142;2023-04-03T13:20:55;8.27;;;1.37;;
18100;SDS011;9177;49.156;8.142;2023-04-03T13:23:26;7.53;;;1.37;;
18100;SDS011;9177;49.156;8.142;2023-04-03T13:25:54;4.30;;;1.00;;
18100;SDS011;9177;49.156;8.142;2023-04-03T13:28:26;4.10;;;1.70;;
18100;SDS011;9177;49.156;8.142;2023-04-03T13:30:55;4.40;;;1.57;;
18100;SDS011;9177;49.156;8.142;2023-04-03T13:33:28;5.23;;;1.30;;
18100;SDS011;9177;49.156;8.142;2023-04-03T13:36:02;4.97;;;1.40;;
18100;SDS011;9177;49.156;8.142;2023-04-03T13:38:31;6.47;;;1.40;;
18100;SDS011;9177;49.156;8.142;2023-04-03T13:40:59;3.93;;;1.30;;
18100;SDS011;9177;49.156;8.142;2023-04-03T13:43:30;8.63;;;1.20;;
18100;SDS011;9177;49.156;8.142;2023-04-03T13:46:02;3.73;;;1.50;;
18100;SDS011;9177;49.156;8.142;2023-04-03T13:48:46;3.77;;;1.47;;
18100;SDS011;9177;49.156;8.142;2023-04-03T13:51:18;5.63;;;1.47;;
18100;SDS011;9177;49.156;8.142;2023-04-03T13:53:50;4.13;;;1.20;;
18100;SDS011;9177;49.156;8.142;2023-04-03T13:56:21;5.57;;;1.50;;
18100;SDS011;9177;49.156;8.142;2023-04-03T13:58:54;6.23;;;1.47;;
18100;SDS011;9177;49.156;8.142;2023-04-03T14:01:40;6.50;;;1.13;;
18100;SDS011;9177;49.156;8.142;2023-04-03T14:04:11;5.53;;;1.40;;
18100;SDS011;9177;49.156;8.142;2023-04-03T14:06:46;9.03;;;1.53;;
18100;SDS011;9177;49.156;8.142;2023-04-03T14:09:14;6.93;;;1.40;;
18100;SDS011;9177;49.156;8.142;2023-04-03T14:11:43;8.57;;;1.63;;
18100;SDS011;9177;49.156;8.142;2023-04-03T14:14:12;4.53;;;2.77;;
18100;SDS011;9177;49.156;8.142;2023-04-03T14:16:43;8.37;;;3.00;;
18100;SDS011;9177;49.156;8.142;2023-04-03T14:19:14;8.90;;;2.40;;
18100;SDS011;9177;49.156;8.142;2023-04-03T14:21:47;8.10;;;2.53;;
18100;SDS011;9177;49.156;8.142;2023-04-03T14:24:15;8.97;;;2.60;;
18100;SDS011;9177;49.156;8.142;2023-04-03T14:26:43;4.13;;;2.10;;
18100;SDS011;9177;49.156;8.142;2023-04-03T14:29:11;7.87;;;2.60;;
18100;SDS011;9177;49.156;8.142;2023-04-03T14:31:38;7.27;;;2.33;;
18100;SDS011;9177;49.156;8.142;2023-04-03T14:34:05;6.63;;;2.60;;
18100;SDS011;9177;49.156;8.142;2023-04-03T14:36:33;4.07;;;1.90;;
18100;SDS011;9177;49.156;8.142;2023-04-03T14:39:03;4.20;;;2.30;;
18100;SDS011;9177;49.156;8.142;2023-04-03T14:41:30;5.53;;;2.20;;
18100;SDS011;9177;49.156;8.142;2023-04-03T14:43:57;6.60;;;2.57;;
18100;SDS011;9177;49.156;8.142;2023-04-03T14:46:26;7.20;;;2.53;;
18100;SDS011;9177;49.156;8.142;2023-04-03T14:48:55;8.67;;;2.47;;
18100;SDS011;9177;49.156;8.142;2023-04-03T14:51:22;5.17;;;2.30;;
18100;SDS011;9177;49.156;8.142;2023-04-03T14:53:49;4.63;;;1.90;;
18100;SDS011;9177;49.156;8.142;2023-04-03T14:56:19;6.20;;;1.67;;
18100;SDS011;9177;49.156;8.142;2023-04-03T14:58:48;6.53;;;2.30;;
18100;SDS011;9177;49.156;8.142;2023-04-03T15:01:20;8.20;;;2.03;;
18100;SDS011;9177;49.156;8.142;2023-04-03T15:03:47;4.33;;;1.67;;
18100;SDS011;9177;49.156;8.142;2023-04-03T15:06:14;2.50;;;1.77;;
18100;SDS011;9177;49.156;8.142;2023-04-03T15:08:41;2.33;;;1.40;;
18100;SDS011;9177;49.156;8.142;2023-04-03T15:11:09;5.50;;;1.67;;
18100;SDS011;9177;49.156;8.142;2023-04-03T15:13:38;4.50;;;1.70;;
18100;SDS011;9177;49.156;8.142;2023-04-03T15:16:10;4.25;;;1.70;;
18100;SDS011;9177;49.156;8.142;2023-04-03T15:18:40;8.23;;;1.80;;
18100;SDS011;9177;49.156;8.142;2023-04-03T15:21:07;4.70;;;1.23;;
18100;SDS011;9177;49.156;8.142;2023-04-03T15:23:34;6.80;;;1.87;;
18100;SDS011;9177;49.156;8.142;2023-04-03T15:26:01;3.90;;;1.43;;
18100;SDS011;9177;49.156;8.142;2023-04-03T15:28:30;5.93;;;1.67;;
18100;SDS011;9177;49.156;8.142;2023-04-03T15:31:02;5.30;;;1.43;;
18100;SDS011;9177;49.156;8.142;2023-04-03T15:33:30;3.80;;;1.50;;
18100;SDS011;9177;49.156;8.142;2023-04-03T15:35:57;4.73;;;1.50;;
18100;SDS011;9177;49.156;8.142;2023-04-03T15:38:24;5.57;;;1.50;;
18100;SDS011;9177;49.156;8.142;2023-04-03T15:40:51;11.30;;;3.10;;
18100;SDS011;9177;49.156;8.142;2023-04-03T15:43:18;4.10;;;1.40;;
18100;SDS011;9177;49.156;8.142;2023-04-03T15:45:46;5.07;;;1.43;;
18100;SDS011;9177;49.156;8.142;2023-04-03T15:48:22;7.80;;;1.80;;
18100;SDS011;9177;49.156;8.142;2023-04-03T15:50:49;9.03;;;1.83;;
18100;SDS011;9177;49.156;8.142;2023-04-03T15:53:16;3.00;;;1.63;;
18100;SDS011;9177;49.156;8.142;2023-04-03T15:55:43;5.80;;;2.50;;